sensor_id;sensor_type;location;lat;lon;timestamp;temperature;humidity
19888;DHT22;10106;51.332;12.336;2022-12-24T00:00:31;9.60;99.90
19888;DHT22;10106;51.332;12.336;2022-12-24T00:02:56;9.70;99.90
19888;DHT22;10106;51.332;12.336;2022-12-24T00:05:22;9.70;99.90
19888;DHT22;10106;51.332;12.336;2022-12-24T00:07:48;9.80;99.90
19888;DHT22;10106;51.332;12.336;2022-12-24T00:10:13;9.90;99.90
19888;DHT22;10106;51.332;12.336;2022-12-24T00:12:39;9.90;99.90
19888;DHT22;10106;51.332;12.336;2022-12-24T00:15:06;9.90;99.90
19888;DHT22;10106;51.332;12.336;2022-12-24T00:17:32;9.90;99.90
19888;DHT22;10106;51.332;12.336;2022-12-24T00:19:57;9.90;99.90
19888;DHT22;10106;51.332;12.336;2022-12-24T00:22:23;9.90;99.90
19888;DHT22;10106;51.332;12.336;2022-12-24T00:24:49;9.90;99.90
19888;DHT22;10106;51.332;12.336;2022-12-24T00:27:15;9.90;99.90
19888;DHT22;10106;51.332;12.336;2022-12-24T00:29:40;9.80;99.90
19888;DHT22;10106;51.332;12.336;2022-12-24T00:32:06;9.80;99.90
19888;DHT22;10106;51.332;12.336;2022-12-24T00:34:35;9.70;99.90
19888;DHT22;10106;51.332;12.336;2022-12-24T00:37:02;9.70;99.90
19888;DHT22;10106;51.332;12.336;2022-12-24T00:39:28;9.70;99.90
19888;DHT22;10106;51.332;12.336;2022-12-24T00:41:53;9.70;99.90
19888;DHT22;10106;51.332;12.336;2022-12-24T00:44:19;9.70;99.90
19888;DHT22;10106;51.332;12.336;2022-12-24T00:46:45;9.60;99.90
19888;DHT22;10106;51.332;12.336;2022-12-24T00:49:11;9.70;99.90
19888;DHT22;10106;51.332;12.336;2022-12-24T00:51:37;9.70;99.90
19888;DHT22;10106;51.332;12.336;2022-12-24T00:54:04;9.60;99.90
19888;DHT22;10106;51.332;12.336;2022-12-24T00:56:30;9.60;99.90
19888;DHT22;10106;51.332;12.336;2022-12-24T00:58:56;9.60;99.90
19888;DHT22;10106;51.332;12.336;2022-12-24T01:01:22;9.70;99.90
19888;DHT22;10106;51.332;12.336;2022-12-24T01:03:47;9.70;99.90
19888;DHT22;10106;51.332;12.336;2022-12-24T01:06:19;9.70;99.90
19888;DHT22;10106;51.332;12.336;2022-12-24T01:08:45;9.70;99.90
19888;DHT22;10106;51.332;12.336;2022-12-24T01:11:11;9.70;99.90
19888;DHT22;10106;51.332;12.336;2022-12-24T01:13:38;9.80;99.90
19888;DHT22;10106;51.332;12.336;2022-12-24T01:16:16;9.80;99.90
19888;DHT22;10106;51.332;12.336;2022-12-24T01:18:42;9.80;99.90
19888;DHT22;10106;51.332;12.336;2022-12-24T01:21:08;9.90;99.90
19888;DHT22;10106;51.332;12.336;2022-12-24T01:23:33;9.90;99.90
19888;DHT22;10106;51.332;12.336;2022-12-24T01:26:03;9.90;99.90
19888;DHT22;10106;51.332;12.336;2022-12-24T01:28:30;9.90;99.90
19888;DHT22;10106;51.332;12.336;2022-12-24T01:30:56;9.90;99.90
19888;DHT22;10106;51.332;12.336;2022-12-24T01:33:22;9.90;99.90
19888;DHT22;10106;51.332;12.336;2022-12-24T01:35:47;9.90;99.90
19888;DHT22;10106;51.332;12.336;2022-12-24T01:38:13;9.90;99.90
19888;DHT22;10106;51.332;12.336;2022-12-24T01:40:40;9.90;99.90
19888;DHT22;10106;51.332;12.336;2022-12-24T01:43:27;9.90;99.90
19888;DHT22;10106;51.332;12.336;2022-12-24T01:45:55;9.90;99.90
19888;DHT22;10106;51.332;12.336;2022-12-24T01:48:27;9.90;99.90
19888;DHT22;10106;51.332;12.336;2022-12-24T01:51:36;9.90;99.90
19888;DHT22;10106;51.332;12.336;2022-12-24T01:54:09;9.90;99.90
19888;DHT22;10106;51.332;12.336;2022-12-24T01:56:40;9.90;99.90
19888;DHT22;10106;51.332;12.336;2022-12-24T01:59:10;9.90;99.90
19888;DHT22;10106;51.332;12.336;2022-12-24T02:01:38;9.90;99.90
19888;DHT22;10106;51.332;12.336;2022-12-24T02:04:11;9.90;99.90
19888;DHT22;10106;51.332;12.336;2022-12-24T02:06:37;9.90;99.90
19888;DHT22;10106;51.332;12.336;2022-12-24T02:09:03;9.90;99.90
19888;DHT22;10106;51.332;12.336;2022-12-24T02:11:29;9.90;99.90
19888;DHT22;10106;51.332;12.336;2022-12-24T02:13:58;9.90;99.90
19888;DHT22;10106;51.332;12.336;2022-12-24T02:22:01;9.90;99.90
19888;DHT22;10106;51.332;12.336;2022-12-24T02:24:53;9.90;99.90
19888;DHT22;10106;51.332;12.336;2022-12-24T02:27:53;9.90;99.90
19888;DHT22;10106;51.332;12.336;2022-12-24T02:30:30;9.90;99.90
19888;DHT22;10106;51.332;12.336;2022-12-24T02:33:16;9.90;99.90
19888;DHT22;10106;51.332;12.336;2022-12-24T02:36:03;10.00;99.90
19888;DHT22;10106;51.332;12.336;2022-12-24T02:38:36;10.00;99.90
19888;DHT22;10106;51.332;12.336;2022-12-24T02:41:15;10.10;99.90
19888;DHT22;10106;51.332;12.336;2022-12-24T02:43:44;10.10;99.90
19888;DHT22;10106;51.332;12.336;2022-12-24T02:46:18;10.10;99.90
19888;DHT22;10106;51.332;12.336;2022-12-24T02:48:47;10.10;99.90
19888;DHT22;10106;51.332;12.336;2022-12-24T02:51:14;10.10;99.90
19888;DHT22;10106;51.332;12.336;2022-12-24T02:53:40;10.10;99.90
19888;DHT22;10106;51.332;12.336;2022-12-24T02:59:08;10.10;99.90
19888;DHT22;10106;51.332;12.336;2022-12-24T03:12:39;10.10;99.90
19888;DHT22;10106;51.332;12.336;2022-12-24T03:15:08;10.10;99.90
19888;DHT22;10106;51.332;12.336;2022-12-24T03:17:36;10.10;99.90
19888;DHT22;10106;51.332;12.336;2022-12-24T03:20:05;10.10;99.90
19888;DHT22;10106;51.332;12.336;2022-12-24T03:22:33;10.10;99.90
19888;DHT22;10106;51.332;12.336;2022-12-24T03:24:59;10.10;99.90
19888;DHT22;10106;51.332;12.336;2022-12-24T03:27:29;10.10;99.90
19888;DHT22;10106;51.332;12.336;2022-12-24T03:29:57;10.10;99.90
19888;DHT22;10106;51.332;12.336;2022-12-24T03:32:27;10.10;99.90
19888;DHT22;10106;51.332;12.336;2022-12-24T03:34:54;10.10;99.90
19888;DHT22;10106;51.332;12.336;2022-12-24T03:37:20;10.10;99.90
19888;DHT22;10106;51.332;12.336;2022-12-24T03:39:46;10.10;99.90
19888;DHT22;10106;51.332;12.336;2022-12-24T03:42:11;10.10;99.90
19888;DHT22;10106;51.332;12.336;2022-12-24T03:44:37;10.10;99.90
19888;DHT22;10106;51.332;12.336;2022-12-24T03:47:03;10.10;99.90
19888;DHT22;10106;51.332;12.336;2022-12-24T03:49:28;10.10;99.90
19888;DHT22;10106;51.332;12.336;2022-12-24T03:51:54;10.10;99.90
19888;DHT22;10106;51.332;12.336;2022-12-24T03:54:20;10.20;99.90
19888;DHT22;10106;51.332;12.336;2022-12-24T03:56:45;10.10;99.90
19888;DHT22;10106;51.332;12.336;2022-12-24T03:59:11;10.10;99.90
19888;DHT22;10106;51.332;12.336;2022-12-24T04:01:37;10.20;99.90
19888;DHT22;10106;51.332;12.336;2022-12-24T04:04:02;10.10;99.90
19888;DHT22;10106;51.332;12.336;2022-12-24T04:06:28;10.10;99.90
19888;DHT22;10106;51.332;12.336;2022-12-24T04:08:54;10.10;99.90
19888;DHT22;10106;51.332;12.336;2022-12-24T04:11:19;10.10;99.90
19888;DHT22;10106;51.332;12.336;2022-12-24T04:13:45;10.10;99.90
19888;DHT22;10106;51.332;12.336;2022-12-24T04:16:13;10.10;99.90
19888;DHT22;10106;51.332;12.336;2022-12-24T04:18:40;10.10;99.90
19888;DHT22;10106;51.332;12.336;2022-12-24T04:21:06;10.00;99.90
19888;DHT22;10106;51.332;12.336;2022-12-24T04:23:34;10.00;99.90
19888;DHT22;10106;51.332;12.336;2022-12-24T04:26:02;10.10;99.90
19888;DHT22;10106;51.332;12.336;2022-12-24T04:28:29;10.00;99.90
19888;DHT22;10106;51.332;12.336;2022-12-24T04:31:02;10.00;99.90
19888;DHT22;10106;51.332;12.336;2022-12-24T04:33:28;10.00;99.90
19888;DHT22;10106;51.332;12.336;2022-12-24T04:35:57;10.10;99.90
19888;DHT22;10106;51.332;12.336;2022-12-24T04:38:23;10.10;99.90
19888;DHT22;10106;51.332;12.336;2022-12-24T04:41:00;10.10;99.90
19888;DHT22;10106;51.332;12.336;2022-12-24T04:43:27;10.10;99.90
19888;DHT22;10106;51.332;12.336;2022-12-24T04:45:53;10.10;99.90
19888;DHT22;10106;51.332;12.336;2022-12-24T04:48:18;10.10;99.90
19888;DHT22;10106;51.332;12.336;2022-12-24T04:50:44;10.10;99.90
19888;DHT22;10106;51.332;12.336;2022-12-24T04:53:10;10.10;99.90
19888;DHT22;10106;51.332;12.336;2022-12-24T04:55:35;10.10;99.90
19888;DHT22;10106;51.332;12.336;2022-12-24T04:58:01;10.20;99.90
19888;DHT22;10106;51.332;12.336;2022-12-24T05:00:27;10.10;99.90
19888;DHT22;10106;51.332;12.336;2022-12-24T05:02:52;10.10;99.90
19888;DHT22;10106;51.332;12.336;2022-12-24T05:05:18;10.10;99.90
19888;DHT22;10106;51.332;12.336;2022-12-24T05:07:43;10.10;99.90
19888;DHT22;10106;51.332;12.336;2022-12-24T05:10:09;10.10;99.90
19888;DHT22;10106;51.332;12.336;2022-12-24T05:12:35;10.10;99.90
19888;DHT22;10106;51.332;12.336;2022-12-24T05:15:01;10.10;99.90
19888;DHT22;10106;51.332;12.336;2022-12-24T05:17:28;10.10;99.90
19888;DHT22;10106;51.332;12.336;2022-12-24T05:19:54;10.00;99.90
19888;DHT22;10106;51.332;12.336;2022-12-24T05:22:19;10.00;99.90
19888;DHT22;10106;51.332;12.336;2022-12-24T05:25:04;10.00;99.90
19888;DHT22;10106;51.332;12.336;2022-12-24T05:27:49;10.00;99.90
19888;DHT22;10106;51.332;12.336;2022-12-24T05:30:15;9.90;99.90
19888;DHT22;10106;51.332;12.336;2022-12-24T05:32:40;9.80;99.90
19888;DHT22;10106;51.332;12.336;2022-12-24T05:35:06;9.70;99.90
19888;DHT22;10106;51.332;12.336;2022-12-24T05:37:32;9.60;99.90
19888;DHT22;10106;51.332;12.336;2022-12-24T05:39:57;9.50;99.90
19888;DHT22;10106;51.332;12.336;2022-12-24T05:42:23;9.30;99.90
19888;DHT22;10106;51.332;12.336;2022-12-24T05:44:49;9.20;99.90
19888;DHT22;10106;51.332;12.336;2022-12-24T05:47:14;9.20;99.90
19888;DHT22;10106;51.332;12.336;2022-12-24T05:49:40;9.10;99.90
19888;DHT22;10106;51.332;12.336;2022-12-24T05:52:06;9.10;99.90
19888;DHT22;10106;51.332;12.336;2022-12-24T05:54:31;9.10;99.90
19888;DHT22;10106;51.332;12.336;2022-12-24T05:56:57;9.00;99.90
19888;DHT22;10106;51.332;12.336;2022-12-24T05:59:23;9.00;99.90
19888;DHT22;10106;51.332;12.336;2022-12-24T06:06:59;8.90;99.90
19888;DHT22;10106;51.332;12.336;2022-12-24T06:09:24;8.90;99.90
19888;DHT22;10106;51.332;12.336;2022-12-24T06:11:50;8.90;99.90
19888;DHT22;10106;51.332;12.336;2022-12-24T06:14:16;8.90;99.90
19888;DHT22;10106;51.332;12.336;2022-12-24T06:16:41;8.90;99.90
19888;DHT22;10106;51.332;12.336;2022-12-24T06:19:07;8.90;99.90
19888;DHT22;10106;51.332;12.336;2022-12-24T06:21:33;9.00;99.90
19888;DHT22;10106;51.332;12.336;2022-12-24T06:23:59;9.00;99.90
19888;DHT22;10106;51.332;12.336;2022-12-24T06:26:24;9.00;99.90
19888;DHT22;10106;51.332;12.336;2022-12-24T06:28:50;9.00;99.90
19888;DHT22;10106;51.332;12.336;2022-12-24T06:31:18;9.00;99.90
19888;DHT22;10106;51.332;12.336;2022-12-24T06:33:45;9.00;99.90
19888;DHT22;10106;51.332;12.336;2022-12-24T06:36:20;9.10;99.90
19888;DHT22;10106;51.332;12.336;2022-12-24T06:38:46;9.10;99.90
19888;DHT22;10106;51.332;12.336;2022-12-24T06:41:13;9.10;99.90
19888;DHT22;10106;51.332;12.336;2022-12-24T06:43:43;9.10;99.90
19888;DHT22;10106;51.332;12.336;2022-12-24T06:46:09;9.10;99.90
19888;DHT22;10106;51.332;12.336;2022-12-24T06:48:34;9.10;99.90
19888;DHT22;10106;51.332;12.336;2022-12-24T06:51:03;9.00;99.90
19888;DHT22;10106;51.332;12.336;2022-12-24T06:53:30;9.00;99.90
19888;DHT22;10106;51.332;12.336;2022-12-24T06:56:05;9.00;99.90
19888;DHT22;10106;51.332;12.336;2022-12-24T06:58:32;8.90;99.90
19888;DHT22;10106;51.332;12.336;2022-12-24T07:01:04;8.90;99.90
19888;DHT22;10106;51.332;12.336;2022-12-24T07:03:30;9.00;99.90
19888;DHT22;10106;51.332;12.336;2022-12-24T07:05:56;9.00;99.90
19888;DHT22;10106;51.332;12.336;2022-12-24T07:08:22;9.00;99.90
19888;DHT22;10106;51.332;12.336;2022-12-24T07:10:49;9.00;99.90
19888;DHT22;10106;51.332;12.336;2022-12-24T07:13:15;8.90;99.90
19888;DHT22;10106;51.332;12.336;2022-12-24T07:15:41;8.90;99.90
19888;DHT22;10106;51.332;12.336;2022-12-24T07:18:07;8.80;99.90
19888;DHT22;10106;51.332;12.336;2022-12-24T07:20:32;8.70;99.90
19888;DHT22;10106;51.332;12.336;2022-12-24T07:22:58;8.70;99.90
19888;DHT22;10106;51.332;12.336;2022-12-24T07:25:24;8.60;99.90
19888;DHT22;10106;51.332;12.336;2022-12-24T07:27:50;8.60;99.90
19888;DHT22;10106;51.332;12.336;2022-12-24T07:30:16;8.50;99.90
19888;DHT22;10106;51.332;12.336;2022-12-24T07:32:41;8.40;99.90
19888;DHT22;10106;51.332;12.336;2022-12-24T07:35:07;8.40;99.90
19888;DHT22;10106;51.332;12.336;2022-12-24T07:37:33;8.40;99.90
19888;DHT22;10106;51.332;12.336;2022-12-24T07:39:59;8.40;99.90
19888;DHT22;10106;51.332;12.336;2022-12-24T07:42:24;8.40;99.90
19888;DHT22;10106;51.332;12.336;2022-12-24T07:44:50;8.40;99.90
19888;DHT22;10106;51.332;12.336;2022-12-24T07:47:16;8.50;99.90
19888;DHT22;10106;51.332;12.336;2022-12-24T07:49:42;8.50;99.90
19888;DHT22;10106;51.332;12.336;2022-12-24T07:52:08;8.60;99.90
19888;DHT22;10106;51.332;12.336;2022-12-24T07:54:33;8.80;99.90
19888;DHT22;10106;51.332;12.336;2022-12-24T07:56:59;8.90;99.90
19888;DHT22;10106;51.332;12.336;2022-12-24T07:59:25;8.90;99.90
19888;DHT22;10106;51.332;12.336;2022-12-24T08:01:50;8.90;99.90
19888;DHT22;10106;51.332;12.336;2022-12-24T08:04:16;8.90;99.90
19888;DHT22;10106;51.332;12.336;2022-12-24T08:06:42;9.00;99.90
19888;DHT22;10106;51.332;12.336;2022-12-24T08:09:07;9.00;99.90
19888;DHT22;10106;51.332;12.336;2022-12-24T08:11:33;9.10;99.90
19888;DHT22;10106;51.332;12.336;2022-12-24T08:13:59;9.50;99.90
19888;DHT22;10106;51.332;12.336;2022-12-24T08:16:25;9.90;99.90
19888;DHT22;10106;51.332;12.336;2022-12-24T08:18:50;11.00;99.90
19888;DHT22;10106;51.332;12.336;2022-12-24T08:21:16;12.20;99.90
19888;DHT22;10106;51.332;12.336;2022-12-24T08:23:42;13.30;99.90
19888;DHT22;10106;51.332;12.336;2022-12-24T08:26:09;13.80;99.90
19888;DHT22;10106;51.332;12.336;2022-12-24T08:28:35;14.90;99.90
19888;DHT22;10106;51.332;12.336;2022-12-24T08:31:01;15.40;99.90
19888;DHT22;10106;51.332;12.336;2022-12-24T08:33:27;15.90;99.90
19888;DHT22;10106;51.332;12.336;2022-12-24T08:35:54;16.00;99.90
19888;DHT22;10106;51.332;12.336;2022-12-24T08:38:20;16.30;99.90
19888;DHT22;10106;51.332;12.336;2022-12-24T08:40:47;16.30;99.90
19888;DHT22;10106;51.332;12.336;2022-12-24T08:43:15;16.10;99.90
19888;DHT22;10106;51.332;12.336;2022-12-24T08:45:41;16.30;99.90
19888;DHT22;10106;51.332;12.336;2022-12-24T08:50:34;15.60;99.90
19888;DHT22;10106;51.332;12.336;2022-12-24T08:53:00;15.50;99.90
19888;DHT22;10106;51.332;12.336;2022-12-24T08:55:26;15.80;99.90
19888;DHT22;10106;51.332;12.336;2022-12-24T08:57:51;16.50;99.90
19888;DHT22;10106;51.332;12.336;2022-12-24T09:00:17;16.50;99.90
19888;DHT22;10106;51.332;12.336;2022-12-24T09:02:43;16.30;99.90
19888;DHT22;10106;51.332;12.336;2022-12-24T09:05:09;16.50;99.90
19888;DHT22;10106;51.332;12.336;2022-12-24T09:07:38;16.60;99.90
19888;DHT22;10106;51.332;12.336;2022-12-24T09:10:05;16.50;99.90
19888;DHT22;10106;51.332;12.336;2022-12-24T09:14:58;14.30;99.90
19888;DHT22;10106;51.332;12.336;2022-12-24T09:17:26;13.10;99.90
19888;DHT22;10106;51.332;12.336;2022-12-24T09:19:52;12.20;99.90
19888;DHT22;10106;51.332;12.336;2022-12-24T09:22:17;11.70;99.90
19888;DHT22;10106;51.332;12.336;2022-12-24T09:24:43;11.30;99.90
19888;DHT22;10106;51.332;12.336;2022-12-24T09:27:08;11.00;99.90
19888;DHT22;10106;51.332;12.336;2022-12-24T09:29:34;10.70;99.90
19888;DHT22;10106;51.332;12.336;2022-12-24T09:32:01;10.60;99.90
19888;DHT22;10106;51.332;12.336;2022-12-24T09:34:27;10.50;99.90
19888;DHT22;10106;51.332;12.336;2022-12-24T09:36:52;10.40;99.90
19888;DHT22;10106;51.332;12.336;2022-12-24T09:39:19;10.20;99.90
19888;DHT22;10106;51.332;12.336;2022-12-24T09:45:45;10.10;99.90
19888;DHT22;10106;51.332;12.336;2022-12-24T09:47:52;10.10;99.90
19888;DHT22;10106;51.332;12.336;2022-12-24T09:53:17;10.10;99.90
19888;DHT22;10106;51.332;12.336;2022-12-24T09:55:48;10.20;99.90
19888;DHT22;10106;51.332;12.336;2022-12-24T09:58:24;10.30;99.90
19888;DHT22;10106;51.332;12.336;2022-12-24T10:00:51;10.40;99.90
19888;DHT22;10106;51.332;12.336;2022-12-24T10:03:17;10.50;99.90
19888;DHT22;10106;51.332;12.336;2022-12-24T10:08:22;10.60;99.90
19888;DHT22;10106;51.332;12.336;2022-12-24T10:10:54;10.60;99.90
19888;DHT22;10106;51.332;12.336;2022-12-24T10:13:33;10.60;99.90
19888;DHT22;10106;51.332;12.336;2022-12-24T10:24:25;10.50;99.90
19888;DHT22;10106;51.332;12.336;2022-12-24T10:26:56;10.60;99.90
19888;DHT22;10106;51.332;12.336;2022-12-24T10:29:29;10.60;99.90
19888;DHT22;10106;51.332;12.336;2022-12-24T10:34:47;10.50;99.90
19888;DHT22;10106;51.332;12.336;2022-12-24T10:37:18;10.50;99.90
19888;DHT22;10106;51.332;12.336;2022-12-24T10:39:45;10.40;99.90
19888;DHT22;10106;51.332;12.336;2022-12-24T10:42:12;10.30;99.90
19888;DHT22;10106;51.332;12.336;2022-12-24T10:44:39;10.30;99.90
19888;DHT22;10106;51.332;12.336;2022-12-24T10:47:07;10.40;99.90
19888;DHT22;10106;51.332;12.336;2022-12-24T10:49:39;10.40;99.90
19888;DHT22;10106;51.332;12.336;2022-12-24T10:52:12;10.40;99.90
19888;DHT22;10106;51.332;12.336;2022-12-24T10:57:43;10.50;99.90
19888;DHT22;10106;51.332;12.336;2022-12-24T11:00:23;10.60;99.90
19888;DHT22;10106;51.332;12.336;2022-12-24T11:03:20;10.60;99.90
19888;DHT22;10106;51.332;12.336;2022-12-24T11:08:30;10.70;99.90
19888;DHT22;10106;51.332;12.336;2022-12-24T11:11:01;10.80;99.90
19888;DHT22;10106;51.332;12.336;2022-12-24T11:13:32;10.80;99.90
19888;DHT22;10106;51.332;12.336;2022-12-24T11:16:16;10.90;99.90
19888;DHT22;10106;51.332;12.336;2022-12-24T11:18:51;10.90;99.90
19888;DHT22;10106;51.332;12.336;2022-12-24T11:21:26;10.90;99.90
19888;DHT22;10106;51.332;12.336;2022-12-24T11:23:55;11.00;99.90
19888;DHT22;10106;51.332;12.336;2022-12-24T11:26:27;11.10;99.90
19888;DHT22;10106;51.332;12.336;2022-12-24T11:31:45;11.20;99.90
19888;DHT22;10106;51.332;12.336;2022-12-24T11:34:29;11.20;99.90
19888;DHT22;10106;51.332;12.336;2022-12-24T11:37:15;11.30;99.90
19888;DHT22;10106;51.332;12.336;2022-12-24T11:39:54;11.40;99.90
19888;DHT22;10106;51.332;12.336;2022-12-24T11:44:54;11.80;99.90
19888;DHT22;10106;51.332;12.336;2022-12-24T11:47:41;12.00;99.90
19888;DHT22;10106;51.332;12.336;2022-12-24T11:50:26;12.20;99.90
19888;DHT22;10106;51.332;12.336;2022-12-24T11:55:52;12.20;99.90
19888;DHT22;10106;51.332;12.336;2022-12-24T11:58:40;12.20;99.90
19888;DHT22;10106;51.332;12.336;2022-12-24T12:03:42;12.10;99.90
19888;DHT22;10106;51.332;12.336;2022-12-24T12:12:08;11.90;99.90
19888;DHT22;10106;51.332;12.336;2022-12-24T12:20:20;11.90;99.90
19888;DHT22;10106;51.332;12.336;2022-12-24T12:31:18;11.90;99.90
19888;DHT22;10106;51.332;12.336;2022-12-24T12:34:21;11.90;99.90
19888;DHT22;10106;51.332;12.336;2022-12-24T12:36:59;11.80;99.90
19888;DHT22;10106;51.332;12.336;2022-12-24T12:39:33;11.80;99.90
19888;DHT22;10106;51.332;12.336;2022-12-24T12:42:08;11.70;99.90
19888;DHT22;10106;51.332;12.336;2022-12-24T12:58:29;11.80;99.90
19888;DHT22;10106;51.332;12.336;2022-12-24T13:01:04;11.70;99.90
19888;DHT22;10106;51.332;12.336;2022-12-24T13:09:29;11.60;99.90
19888;DHT22;10106;51.332;12.336;2022-12-24T13:15:10;11.60;99.90
19888;DHT22;10106;51.332;12.336;2022-12-24T13:20:30;11.40;99.90
19888;DHT22;10106;51.332;12.336;2022-12-24T13:23:11;11.30;99.90
19888;DHT22;10106;51.332;12.336;2022-12-24T13:25:43;11.20;99.90
19888;DHT22;10106;51.332;12.336;2022-12-24T13:30:52;10.90;99.90
19888;DHT22;10106;51.332;12.336;2022-12-24T13:36:06;10.70;99.90
19888;DHT22;10106;51.332;12.336;2022-12-24T13:41:37;10.60;99.90
19888;DHT22;10106;51.332;12.336;2022-12-24T13:49:38;10.40;99.90
19888;DHT22;10106;51.332;12.336;2022-12-24T13:54:40;10.40;99.90
19888;DHT22;10106;51.332;12.336;2022-12-24T14:05:46;10.40;99.90
19888;DHT22;10106;51.332;12.336;2022-12-24T14:11:11;10.40;99.90
19888;DHT22;10106;51.332;12.336;2022-12-24T14:18:31;10.30;99.90
19888;DHT22;10106;51.332;12.336;2022-12-24T14:20:59;10.40;99.90
19888;DHT22;10106;51.332;12.336;2022-12-24T14:23:57;10.40;99.90
19888;DHT22;10106;51.332;12.336;2022-12-24T14:26:27;10.30;99.90
19888;DHT22;10106;51.332;12.336;2022-12-24T14:28:55;10.30;99.90
19888;DHT22;10106;51.332;12.336;2022-12-24T14:31:22;10.30;99.90
19888;DHT22;10106;51.332;12.336;2022-12-24T14:33:48;10.30;99.90
19888;DHT22;10106;51.332;12.336;2022-12-24T14:36:19;10.30;99.90
19888;DHT22;10106;51.332;12.336;2022-12-24T14:38:45;10.30;99.90
19888;DHT22;10106;51.332;12.336;2022-12-24T14:48:00;10.30;99.90
19888;DHT22;10106;51.332;12.336;2022-12-24T14:55:42;10.20;99.90
19888;DHT22;10106;51.332;12.336;2022-12-24T15:00:49;10.10;99.90
19888;DHT22;10106;51.332;12.336;2022-12-24T15:03:17;10.00;99.90
19888;DHT22;10106;51.332;12.336;2022-12-24T15:05:44;9.90;99.90
19888;DHT22;10106;51.332;12.336;2022-12-24T15:08:17;9.90;99.90
19888;DHT22;10106;51.332;12.336;2022-12-24T15:10:49;9.80;99.90
19888;DHT22;10106;51.332;12.336;2022-12-24T15:13:43;9.70;99.90
19888;DHT22;10106;51.332;12.336;2022-12-24T15:16:21;9.60;99.90
19888;DHT22;10106;51.332;12.336;2022-12-24T15:18:52;9.60;99.90
19888;DHT22;10106;51.332;12.336;2022-12-24T15:21:32;9.50;99.90
19888;DHT22;10106;51.332;12.336;2022-12-24T15:23:58;9.40;99.90
19888;DHT22;10106;51.332;12.336;2022-12-24T15:28:56;9.30;99.90
19888;DHT22;10106;51.332;12.336;2022-12-24T15:31:23;9.40;99.90
19888;DHT22;10106;51.332;12.336;2022-12-24T15:33:51;9.40;99.90
19888;DHT22;10106;51.332;12.336;2022-12-24T15:36:25;9.30;99.90
19888;DHT22;10106;51.332;12.336;2022-12-24T15:38:53;9.40;99.90
19888;DHT22;10106;51.332;12.336;2022-12-24T15:41:25;9.40;99.90
19888;DHT22;10106;51.332;12.336;2022-12-24T15:43:53;9.30;99.90
19888;DHT22;10106;51.332;12.336;2022-12-24T15:46:27;9.30;99.90
19888;DHT22;10106;51.332;12.336;2022-12-24T15:48:55;9.30;99.90
19888;DHT22;10106;51.332;12.336;2022-12-24T15:51:34;9.20;99.90
19888;DHT22;10106;51.332;12.336;2022-12-24T15:54:03;9.10;99.90
19888;DHT22;10106;51.332;12.336;2022-12-24T15:56:31;9.00;99.90
19888;DHT22;10106;51.332;12.336;2022-12-24T16:01:43;8.80;99.90
19888;DHT22;10106;51.332;12.336;2022-12-24T16:04:14;8.80;99.90
19888;DHT22;10106;51.332;12.336;2022-12-24T16:12:02;8.60;99.90
19888;DHT22;10106;51.332;12.336;2022-12-24T16:14:28;8.50;99.90
19888;DHT22;10106;51.332;12.336;2022-12-24T16:16:55;8.50;99.90
19888;DHT22;10106;51.332;12.336;2022-12-24T16:19:30;8.40;99.90
19888;DHT22;10106;51.332;12.336;2022-12-24T16:22:02;8.40;99.90
19888;DHT22;10106;51.332;12.336;2022-12-24T16:24:48;8.20;99.90
19888;DHT22;10106;51.332;12.336;2022-12-24T16:27:16;8.20;99.90
19888;DHT22;10106;51.332;12.336;2022-12-24T16:29:42;8.20;99.90
19888;DHT22;10106;51.332;12.336;2022-12-24T16:32:29;8.20;99.90
19888;DHT22;10106;51.332;12.336;2022-12-24T16:34:55;8.10;99.90
19888;DHT22;10106;51.332;12.336;2022-12-24T16:37:21;8.10;99.90
19888;DHT22;10106;51.332;12.336;2022-12-24T16:39:47;8.10;99.90
19888;DHT22;10106;51.332;12.336;2022-12-24T16:42:13;8.00;99.90
19888;DHT22;10106;51.332;12.336;2022-12-24T16:44:57;7.90;99.90
19888;DHT22;10106;51.332;12.336;2022-12-24T16:47:25;7.80;99.90
19888;DHT22;10106;51.332;12.336;2022-12-24T16:49:51;7.80;99.90
19888;DHT22;10106;51.332;12.336;2022-12-24T16:52:22;7.70;99.90
19888;DHT22;10106;51.332;12.336;2022-12-24T16:54:50;7.60;99.90
19888;DHT22;10106;51.332;12.336;2022-12-24T16:57:17;7.50;99.90
19888;DHT22;10106;51.332;12.336;2022-12-24T16:59:43;7.40;99.90
19888;DHT22;10106;51.332;12.336;2022-12-24T17:02:12;7.30;99.90
19888;DHT22;10106;51.332;12.336;2022-12-24T17:04:39;7.30;99.90
19888;DHT22;10106;51.332;12.336;2022-12-24T17:07:05;7.20;99.90
19888;DHT22;10106;51.332;12.336;2022-12-24T17:09:31;7.20;99.90
19888;DHT22;10106;51.332;12.336;2022-12-24T17:11:56;7.10;99.90
19888;DHT22;10106;51.332;12.336;2022-12-24T17:14:22;7.20;99.90
19888;DHT22;10106;51.332;12.336;2022-12-24T17:16:48;7.20;99.90
19888;DHT22;10106;51.332;12.336;2022-12-24T17:19:14;7.20;99.90
19888;DHT22;10106;51.332;12.336;2022-12-24T17:21:40;7.20;99.90
19888;DHT22;10106;51.332;12.336;2022-12-24T17:24:07;7.30;99.90
19888;DHT22;10106;51.332;12.336;2022-12-24T17:26:33;7.30;99.90
19888;DHT22;10106;51.332;12.336;2022-12-24T17:28:59;7.30;99.90
19888;DHT22;10106;51.332;12.336;2022-12-24T17:31:26;7.30;99.90
19888;DHT22;10106;51.332;12.336;2022-12-24T17:33:52;7.20;99.90
19888;DHT22;10106;51.332;12.336;2022-12-24T17:36:19;7.20;99.90
19888;DHT22;10106;51.332;12.336;2022-12-24T17:38:45;7.10;99.90
19888;DHT22;10106;51.332;12.336;2022-12-24T17:41:13;7.10;99.90
19888;DHT22;10106;51.332;12.336;2022-12-24T17:43:40;7.00;99.90
19888;DHT22;10106;51.332;12.336;2022-12-24T17:46:07;7.00;99.90
19888;DHT22;10106;51.332;12.336;2022-12-24T17:48:33;7.00;99.90
19888;DHT22;10106;51.332;12.336;2022-12-24T17:51:07;7.00;99.90
19888;DHT22;10106;51.332;12.336;2022-12-24T17:53:34;7.10;99.90
19888;DHT22;10106;51.332;12.336;2022-12-24T17:56:00;7.10;99.90
19888;DHT22;10106;51.332;12.336;2022-12-24T17:58:26;7.20;99.90
19888;DHT22;10106;51.332;12.336;2022-12-24T18:00:52;7.30;99.90
19888;DHT22;10106;51.332;12.336;2022-12-24T18:03:20;7.30;99.90
19888;DHT22;10106;51.332;12.336;2022-12-24T18:05:45;7.40;99.90
19888;DHT22;10106;51.332;12.336;2022-12-24T18:08:11;7.40;99.90
19888;DHT22;10106;51.332;12.336;2022-12-24T18:10:37;7.40;99.90
19888;DHT22;10106;51.332;12.336;2022-12-24T18:13:03;7.30;99.90
19888;DHT22;10106;51.332;12.336;2022-12-24T18:15:33;7.30;99.90
19888;DHT22;10106;51.332;12.336;2022-12-24T18:17:59;7.30;99.90
19888;DHT22;10106;51.332;12.336;2022-12-24T18:20:24;7.20;99.90
19888;DHT22;10106;51.332;12.336;2022-12-24T18:22:50;7.20;99.90
19888;DHT22;10106;51.332;12.336;2022-12-24T18:25:16;7.10;99.90